Terminal Aerodrome Forecast
Issued by NWS

Home | Current Version | Previous Version | Text Only | Print | Product List | Glossary On
Versions: 1 2 3 4 5 6 7 8 9 10 11 12 13 14 15 16 17 18 19 20 21
000
FTUS43 KDVN 221433 AAC
TAFBRL
TAF AMD
KBRL 221433Z 2215/2312 17015G20KT P6SM SCT008 BKN100
     FM221700 19009KT P6SM VCTS SCT035CB BKN110
     FM222300 35006KT P6SM SCT035 BKN100
     FM230700 35003KT 5SM BR FEW008 BKN100=

USA.gov is the U.S. government's official web portal to all federal, state and local government web resources and services.